createdAt,value
2022-12-01T00:04:16.760Z,28.30
2022-12-01T00:09:39.091Z,27.67
2022-12-01T00:14:42.502Z,28.93
2022-12-01T00:19:46.221Z,28.07
2022-12-01T00:24:51.087Z,29.30
2022-12-01T00:29:54.584Z,31.83
2022-12-01T00:34:57.847Z,29.53
2022-12-01T00:40:02.726Z,32.30
2022-12-01T00:45:06.850Z,32.33
2022-12-01T00:50:10.442Z,28.30
2022-12-01T00:55:15.098Z,30.20
2022-12-01T01:00:18.779Z,26.27
2022-12-01T01:05:22.268Z,30.60
2022-12-01T01:10:26.954Z,27.87
2022-12-01T01:15:30.295Z,28.37
2022-12-01T01:20:33.852Z,33.03
2022-12-01T01:25:38.566Z,28.50
2022-12-01T01:30:42.154Z,33.77
2022-12-01T01:35:45.750Z,32.50
2022-12-01T01:40:50.415Z,30.40
2022-12-01T01:45:53.851Z,26.30
2022-12-01T01:50:57.285Z,30.47
2022-12-01T01:56:03.262Z,28.23
2022-12-01T02:01:06.922Z,32.90
2022-12-01T02:06:10.795Z,30.67
2022-12-01T02:11:48.598Z,32.60
2022-12-01T02:16:55.936Z,31.63
2022-12-01T02:22:05.092Z,28.33
2022-12-01T02:27:13.742Z,34.20
2022-12-01T02:32:20.685Z,26.93
2022-12-01T02:37:25.994Z,30.33
2022-12-01T02:42:54.037Z,29.50
2022-12-01T02:48:01.538Z,31.43
2022-12-01T02:53:06.821Z,33.40
2022-12-01T02:58:14.218Z,37.40
2022-12-01T03:03:33.263Z,37.13
2022-12-01T03:08:46.200Z,30.10
2022-12-01T03:13:54.520Z,32.03
2022-12-01T03:19:01.094Z,33.90
2022-12-01T03:24:07.595Z,35.57
2022-12-01T03:29:12.416Z,36.30
2022-12-01T03:34:19.141Z,35.90
2022-12-01T03:39:23.966Z,38.00
2022-12-01T03:44:31.710Z,34.10
2022-12-01T03:49:37.106Z,35.73
2022-12-01T03:54:45.489Z,40.67
2022-12-01T03:59:49.141Z,32.43
2022-12-01T04:04:54.142Z,29.73
2022-12-01T04:09:57.926Z,36.43
2022-12-01T04:15:02.187Z,42.03
2022-12-01T04:20:07.975Z,50.87
2022-12-01T04:25:11.630Z,39.37
2022-12-01T04:30:15.436Z,38.77
2022-12-01T04:35:20.403Z,40.47
2022-12-01T04:40:23.820Z,34.60
2022-12-01T04:45:27.211Z,34.37
2022-12-01T04:50:32.460Z,36.53
2022-12-01T04:55:39.167Z,37.80
2022-12-01T05:00:42.384Z,36.07
2022-12-01T05:05:47.060Z,37.33
2022-12-01T05:10:50.592Z,33.40
2022-12-01T05:15:54.046Z,40.93
2022-12-01T05:20:59.147Z,39.07
2022-12-01T05:26:03.093Z,36.40
2022-12-01T05:31:06.631Z,35.67
2022-12-01T05:36:11.653Z,38.00
2022-12-01T05:41:16.060Z,37.53
2022-12-01T05:46:19.565Z,36.27
2022-12-01T05:51:24.254Z,34.83
2022-12-01T05:56:27.639Z,35.13
2022-12-01T06:01:30.959Z,31.13
2022-12-01T06:06:35.623Z,38.03
2022-12-01T06:11:38.996Z,31.57
2022-12-01T06:16:42.295Z,37.10
2022-12-01T06:21:46.982Z,28.03
2022-12-01T06:26:50.322Z,37.60
2022-12-01T06:31:53.922Z,33.97
2022-12-01T06:37:00.864Z,37.03
2022-12-01T06:42:04.223Z,34.90
2022-12-01T06:47:08.247Z,34.03
2022-12-01T06:52:12.895Z,34.40
2022-12-01T06:57:16.227Z,29.30
2022-12-01T07:02:19.808Z,38.77
2022-12-01T07:07:24.392Z,35.83
2022-12-01T07:12:27.870Z,29.97
2022-12-01T07:17:31.089Z,37.70
2022-12-01T07:22:36.227Z,34.87
2022-12-01T07:27:39.639Z,36.17
2022-12-01T07:32:42.999Z,36.83
2022-12-01T07:37:47.680Z,39.40
2022-12-01T07:42:51.018Z,37.20
2022-12-01T07:47:54.730Z,34.27
2022-12-01T07:52:59.306Z,32.50
2022-12-01T07:58:04.590Z,33.43
2022-12-01T08:03:08.096Z,32.90
2022-12-01T08:08:13.207Z,31.03
2022-12-01T08:13:17.591Z,35.80
2022-12-01T08:18:20.877Z,32.60
2022-12-01T08:23:25.635Z,34.20
2022-12-01T08:28:29.085Z,37.97
2022-12-01T08:33:32.392Z,36.40
2022-12-01T08:38:37.078Z,31.93
2022-12-01T08:43:57.115Z,35.27
2022-12-01T08:49:01.898Z,41.00
2022-12-01T08:54:06.794Z,36.80
2022-12-01T08:59:10.384Z,40.97
2022-12-01T09:04:13.778Z,34.97
2022-12-01T09:09:19.412Z,35.57
2022-12-01T09:14:23.324Z,32.30
2022-12-01T09:19:28.600Z,34.20
2022-12-01T09:24:33.398Z,29.03
2022-12-01T09:29:36.628Z,32.53
2022-12-01T09:34:39.924Z,33.67
2022-12-01T09:39:44.406Z,32.30
2022-12-01T09:44:50.134Z,34.07
2022-12-01T09:49:56.787Z,30.83
2022-12-01T09:55:01.866Z,29.87
2022-12-01T10:00:06.858Z,29.40
2022-12-01T10:05:17.385Z,32.37
2022-12-01T10:10:26.306Z,31.57
2022-12-01T10:15:35.346Z,31.77
2022-12-01T10:20:43.107Z,32.00
2022-12-01T10:25:53.205Z,27.37
2022-12-01T10:31:00.320Z,30.57
2022-12-01T10:36:03.606Z,29.13
2022-12-01T10:41:13.459Z,28.57
2022-12-01T10:46:21.470Z,27.13
2022-12-01T10:51:25.589Z,28.43
2022-12-01T10:56:30.204Z,24.90
2022-12-01T11:01:36.325Z,26.53
2022-12-01T11:06:39.718Z,26.13
2022-12-01T11:11:44.454Z,25.90
2022-12-01T11:16:49.015Z,33.93
2022-12-01T11:21:53.128Z,26.17
2022-12-01T11:26:59.696Z,30.70
2022-12-01T11:32:03.521Z,27.47
2022-12-01T11:37:08.973Z,24.93
2022-12-01T11:42:20.907Z,22.37
2022-12-01T11:47:25.335Z,26.37
2022-12-01T11:52:31.490Z,31.03
2022-12-01T11:57:36.157Z,29.57
2022-12-01T12:02:41.824Z,25.93
2022-12-01T12:07:50.990Z,25.27
2022-12-01T12:13:01.112Z,29.47
2022-12-01T12:18:15.140Z,29.03
2022-12-01T12:23:34.463Z,21.27
2022-12-01T12:28:47.897Z,22.57
2022-12-01T12:33:59.419Z,21.80
2022-12-01T12:39:12.145Z,25.20
2022-12-01T12:44:31.144Z,25.97
2022-12-01T12:49:44.313Z,25.53
2022-12-01T12:54:49.939Z,22.47
2022-12-01T12:59:56.086Z,22.37
2022-12-01T13:05:00.922Z,26.67
2022-12-01T13:10:07.890Z,20.97
2022-12-01T13:15:17.531Z,24.67
2022-12-01T13:20:22.947Z,22.07
2022-12-01T13:25:28.366Z,24.63
2022-12-01T13:30:33.173Z,26.03
2022-12-01T13:35:37.464Z,26.43
2022-12-01T13:40:40.945Z,23.60
2022-12-01T13:45:45.720Z,24.93
2022-12-01T13:51:00.174Z,27.17
2022-12-01T13:56:41.274Z,25.43
2022-12-01T14:02:15.619Z,21.93
2022-12-01T14:07:24.160Z,21.00
2022-12-01T14:12:30.263Z,27.43
2022-12-01T14:17:35.906Z,23.40
2022-12-01T14:22:40.395Z,24.37
2022-12-01T14:27:44.417Z,23.77
2022-12-01T14:32:49.014Z,25.83
2022-12-01T14:37:52.448Z,22.63
2022-12-01T14:43:15.075Z,25.97
2022-12-01T14:48:21.261Z,28.53
2022-12-01T14:53:26.076Z,26.83
2022-12-01T14:58:30.094Z,27.90
2022-12-01T15:03:37.637Z,24.47
2022-12-01T15:08:49.434Z,27.97
2022-12-01T15:13:57.480Z,25.27
2022-12-01T15:19:02.006Z,33.33
2022-12-01T15:24:06.699Z,25.27
2022-12-01T15:29:16.205Z,25.57
2022-12-01T15:34:23.296Z,45.93
2022-12-01T15:39:29.959Z,33.00
2022-12-01T15:44:34.163Z,36.87
2022-12-01T15:49:49.392Z,29.37
2022-12-01T15:54:52.990Z,31.70
2022-12-01T15:59:57.902Z,47.97
2022-12-01T16:05:03.778Z,27.10
2022-12-01T16:10:10.273Z,32.23
2022-12-01T16:15:14.511Z,29.23
2022-12-01T16:20:22.587Z,28.97
2022-12-01T16:25:30.164Z,27.87
2022-12-01T16:30:36.564Z,33.60
2022-12-01T16:35:41.223Z,29.13
2022-12-01T16:40:44.725Z,30.13
2022-12-01T16:45:50.414Z,38.83
2022-12-01T16:50:55.484Z,34.43
2022-12-01T16:55:59.325Z,28.10
2022-12-01T17:01:02.558Z,27.13
2022-12-01T17:06:07.603Z,29.40
2022-12-01T17:11:10.974Z,37.40
2022-12-01T17:16:18.420Z,36.80
2022-12-01T17:21:23.624Z,36.17
2022-12-01T17:26:26.945Z,41.10
2022-12-01T17:31:30.188Z,36.13
2022-12-01T17:36:34.823Z,43.47
2022-12-01T17:41:38.023Z,32.07
2022-12-01T17:46:41.872Z,39.37
2022-12-01T17:51:46.597Z,37.40
2022-12-01T17:56:49.952Z,36.27
2022-12-01T18:01:53.372Z,71.53
2022-12-01T18:07:02.559Z,89.37
2022-12-01T18:12:06.091Z,58.13
2022-12-01T18:17:09.460Z,35.33
2022-12-01T18:22:14.031Z,36.83
2022-12-01T18:27:17.339Z,36.77
2022-12-01T18:32:20.534Z,45.17
2022-12-01T18:37:26.908Z,37.13
2022-12-01T18:42:30.084Z,36.70
2022-12-01T18:47:33.491Z,34.57
2022-12-01T18:52:38.498Z,49.57
2022-12-01T18:57:41.951Z,34.00
2022-12-01T19:02:47.628Z,32.50
2022-12-01T19:07:54.262Z,34.93
2022-12-01T19:12:57.563Z,34.30
2022-12-01T19:18:00.982Z,34.23
2022-12-01T19:23:05.533Z,39.87
2022-12-01T19:28:09.174Z,37.53
2022-12-01T19:33:12.499Z,36.03
2022-12-01T19:38:17.523Z,35.77
2022-12-01T19:43:20.769Z,35.30
2022-12-01T19:48:24.147Z,37.27
2022-12-01T19:53:33.802Z,32.80
2022-12-01T19:58:37.422Z,33.93
2022-12-01T20:03:40.791Z,42.20
2022-12-01T20:08:45.890Z,40.73
2022-12-01T20:13:49.434Z,31.10
2022-12-01T20:18:53.144Z,29.73
2022-12-01T20:23:58.722Z,42.87
2022-12-01T20:29:05.711Z,38.67
2022-12-01T20:34:11.263Z,34.40
2022-12-01T20:39:17.185Z,35.67
2022-12-01T20:44:20.543Z,35.63
2022-12-01T20:49:24.495Z,33.53
2022-12-01T20:54:30.214Z,33.57
2022-12-01T20:59:35.571Z,44.40
2022-12-01T21:04:39.447Z,40.83
2022-12-01T21:09:44.497Z,34.07
2022-12-01T21:14:50.791Z,34.83
2022-12-01T21:19:56.946Z,83.97
2022-12-01T21:25:04.442Z,45.10
2022-12-01T21:30:15.561Z,53.40
2022-12-01T21:35:20.254Z,45.87
2022-12-01T21:40:25.894Z,43.27
2022-12-01T21:45:30.631Z,38.30
2022-12-01T21:50:34.035Z,40.20
2022-12-01T21:55:39.534Z,36.97
2022-12-01T22:00:43.161Z,32.07
2022-12-01T22:06:07.113Z,33.37
2022-12-01T22:11:13.645Z,31.83
2022-12-01T22:16:19.867Z,35.83
2022-12-01T22:21:33.297Z,32.27
2022-12-01T22:26:38.966Z,32.60
2022-12-01T22:31:42.298Z,35.50
2022-12-01T22:36:46.160Z,38.97
2022-12-01T22:41:51.772Z,35.27
2022-12-01T22:46:56.426Z,33.13
2022-12-01T22:52:01.488Z,38.33
2022-12-01T22:57:19.824Z,38.33
2022-12-01T23:02:24.800Z,40.73
2022-12-01T23:07:35.409Z,38.30
2022-12-01T23:12:40.342Z,35.50
2022-12-01T23:17:43.953Z,37.30
2022-12-01T23:22:47.727Z,35.17
2022-12-01T23:27:53.631Z,38.77
2022-12-01T23:33:15.102Z,40.40
2022-12-01T23:38:20.703Z,40.63
2022-12-01T23:43:26.737Z,40.03
2022-12-01T23:48:33.556Z,42.27
2022-12-01T23:53:36.883Z,40.40
2022-12-01T23:58:41.706Z,43.30
